createdAt,value
2019-02-26T00:01:18.521Z,60.89
2019-02-26T00:03:47.050Z,60.84
2019-02-26T00:06:18.406Z,61.06
2019-02-26T00:08:51.295Z,61.13
2019-02-26T00:11:19.982Z,61.22
2019-02-26T00:13:50.777Z,61.21
2019-02-26T00:16:20.915Z,61.47
2019-02-26T00:18:50.544Z,61.71
2019-02-26T00:21:22.695Z,62.08
2019-02-26T00:23:53.155Z,62.30
2019-02-26T00:26:22.588Z,62.24
2019-02-26T00:28:51.942Z,62.50
2019-02-26T00:31:23.846Z,62.88
2019-02-26T00:33:52.688Z,63.10
2019-02-26T00:36:22.373Z,62.96
2019-02-26T00:38:51.742Z,62.75
2019-02-26T00:41:22.906Z,62.80
2019-02-26T00:43:53.522Z,62.82
2019-02-26T00:46:24.229Z,63.09
2019-02-26T00:48:56.369Z,63.55
2019-02-26T00:51:26.955Z,63.71
2019-02-26T00:53:57.521Z,63.67
2019-02-26T00:56:29.369Z,63.78
2019-02-26T00:58:58.710Z,63.80
2019-02-26T01:01:28.086Z,63.98
2019-02-26T01:03:57.449Z,63.78
2019-02-26T01:06:28.899Z,63.98
2019-02-26T01:08:58.991Z,64.12
2019-02-26T01:11:30.258Z,64.31
2019-02-26T01:13:59.663Z,64.61
2019-02-26T01:16:29.046Z,64.65
2019-02-26T01:18:58.502Z,64.75
2019-02-26T01:21:29.127Z,64.91
2019-02-26T01:24:01.603Z,65.62
2019-02-26T01:26:30.114Z,65.71
2019-02-26T01:29:01.017Z,65.72
2019-02-26T01:31:32.126Z,65.88
2019-02-26T01:34:02.463Z,66.28
2019-02-26T01:36:32.248Z,66.32
2019-02-26T01:39:01.978Z,66.68
2019-02-26T01:41:31.652Z,66.56
2019-02-26T01:44:01.178Z,66.69
2019-02-26T01:46:32.214Z,66.54
2019-02-26T01:49:04.235Z,66.60
2019-02-26T01:51:33.741Z,67.15
2019-02-26T01:54:05.181Z,66.83
2019-02-26T01:56:36.478Z,66.95
2019-02-26T01:59:05.384Z,67.17
2019-02-26T02:01:34.754Z,67.16
2019-02-26T02:04:04.214Z,68.16
2019-02-26T02:06:34.922Z,68.45
2019-02-26T02:09:05.230Z,68.59
2019-02-26T02:11:35.821Z,69.53
2019-02-26T02:14:07.738Z,69.23
2019-02-26T02:16:36.994Z,68.97
2019-02-26T02:19:06.430Z,68.67
2019-02-26T02:21:35.879Z,68.87
2019-02-26T02:24:05.763Z,68.98
2019-02-26T02:26:36.579Z,69.35
2019-02-26T02:29:05.949Z,68.85
2019-02-26T02:31:37.701Z,68.08
2019-02-26T02:34:06.444Z,68.30
2019-02-26T02:36:35.822Z,68.79
2019-02-26T02:39:10.357Z,69.16
2019-02-26T02:41:39.353Z,69.05
2019-02-26T02:44:12.305Z,69.09
2019-02-26T02:46:42.506Z,69.03
2019-02-26T02:49:13.251Z,69.46
2019-02-26T02:51:42.797Z,69.36
2019-02-26T02:54:15.324Z,69.16
2019-02-26T02:56:44.343Z,69.15
2019-02-26T02:59:14.553Z,68.93
2019-02-26T03:01:45.831Z,68.95
2019-02-26T03:04:19.649Z,69.04
2019-02-26T03:06:47.265Z,69.04
2019-02-26T03:09:17.735Z,69.26
2019-02-26T03:11:49.575Z,69.56
2019-02-26T03:14:19.097Z,69.49
2019-02-26T03:16:50.845Z,69.91
2019-02-26T03:19:19.584Z,69.73
2019-02-26T03:21:49.614Z,69.73
2019-02-26T03:24:22.767Z,69.75
2019-02-26T03:26:51.202Z,70.33
2019-02-26T03:29:20.647Z,70.53
2019-02-26T03:31:54.848Z,70.56
2019-02-26T03:34:25.176Z,70.81
2019-02-26T03:36:52.599Z,70.86
2019-02-26T03:39:21.969Z,71.09
2019-02-26T03:41:53.480Z,71.44
2019-02-26T03:44:22.832Z,71.40
2019-02-26T03:46:52.205Z,71.77
2019-02-26T03:49:26.351Z,71.77
2019-02-26T03:51:53.173Z,71.32
2019-02-26T03:54:22.520Z,71.77
2019-02-26T03:56:51.922Z,71.60
2019-02-26T03:59:21.290Z,71.71
2019-02-26T04:01:50.990Z,72.19
2019-02-26T04:04:22.933Z,72.31
2019-02-26T04:06:52.151Z,72.67
2019-02-26T04:09:21.947Z,72.73
2019-02-26T04:11:53.426Z,72.41
2019-02-26T04:14:23.573Z,72.17
2019-02-26T04:16:56.058Z,72.15
2019-02-26T04:19:26.755Z,72.31
2019-02-26T04:22:33.949Z,72.57
2019-02-26T04:25:11.055Z,72.58
2019-02-26T04:28:13.743Z,72.43
2019-02-26T04:31:03.734Z,72.38
2019-02-26T04:34:08.573Z,72.26
2019-02-26T04:37:15.473Z,72.35
2019-02-26T04:40:04.157Z,72.46
2019-02-26T04:42:52.603Z,73.26
2019-02-26T04:45:59.548Z,73.91
2019-02-26T04:48:37.598Z,74.37
2019-02-26T04:51:06.931Z,74.52
2019-02-26T04:53:36.508Z,74.98
2019-02-26T04:56:11.719Z,75.17
2019-02-26T04:58:38.102Z,75.14
2019-02-26T05:01:10.249Z,75.21
2019-02-26T05:03:39.577Z,75.04
2019-02-26T05:06:10.831Z,74.67
2019-02-26T05:08:40.738Z,74.70
2019-02-26T05:11:14.844Z,74.64
2019-02-26T05:13:42.086Z,74.67
2019-02-26T05:16:11.797Z,74.35
2019-02-26T05:18:43.837Z,74.32
2019-02-26T05:21:15.303Z,74.33
2019-02-26T05:23:46.480Z,74.15
2019-02-26T05:26:18.080Z,73.68
2019-02-26T05:28:49.702Z,73.20
2019-02-26T05:31:18.362Z,73.57
2019-02-26T05:33:49.608Z,73.67
2019-02-26T05:36:19.190Z,73.75
2019-02-26T05:38:49.291Z,73.63
2019-02-26T05:41:19.590Z,73.54
2019-02-26T05:43:52.199Z,73.52
2019-02-26T05:46:22.009Z,72.70
2019-02-26T05:48:51.480Z,73.37
2019-02-26T05:51:21.145Z,73.30
2019-02-26T05:53:50.483Z,72.91
2019-02-26T05:56:20.762Z,72.94
2019-02-26T05:58:50.904Z,72.87
2019-02-26T06:01:22.499Z,72.93
2019-02-26T06:03:51.912Z,72.87
2019-02-26T06:06:21.750Z,73.06
2019-02-26T06:08:51.494Z,73.11
2019-02-26T06:11:20.829Z,72.93
2019-02-26T06:13:50.882Z,72.54
2019-02-26T06:16:21.827Z,71.70
2019-02-26T06:18:51.899Z,71.44
2019-02-26T06:21:23.525Z,71.21
2019-02-26T06:23:54.909Z,71.40
2019-02-26T06:26:28.022Z,71.15
2019-02-26T06:28:55.486Z,70.66
2019-02-26T06:31:25.205Z,70.62
2019-02-26T06:33:54.508Z,70.75
2019-02-26T06:36:25.600Z,71.03
2019-02-26T06:38:56.489Z,70.47
2019-02-26T06:41:26.011Z,70.22
2019-02-26T06:43:55.799Z,69.78
2019-02-26T06:46:27.017Z,76.77
2019-02-26T06:48:56.232Z,75.22
2019-02-26T06:51:26.162Z,74.58
2019-02-26T06:53:58.699Z,71.74
2019-02-26T06:56:27.718Z,67.96
2019-02-26T06:59:00.468Z,67.03
2019-02-26T07:01:32.345Z,67.59
2019-02-26T07:04:00.818Z,66.25
2019-02-26T07:06:32.141Z,65.45
2019-02-26T07:09:01.218Z,65.15
2019-02-26T07:11:33.129Z,64.50
2019-02-26T07:14:03.592Z,64.69
2019-02-26T07:16:32.970Z,64.45
2019-02-26T07:19:03.971Z,63.62
2019-02-26T07:21:33.321Z,62.71
2019-02-26T07:24:03.459Z,62.96
2019-02-26T07:26:32.848Z,63.16
2019-02-26T07:29:03.541Z,62.96
2019-02-26T07:31:35.532Z,62.48
2019-02-26T07:34:04.861Z,61.92
2019-02-26T07:36:34.700Z,61.25
2019-02-26T07:39:05.229Z,61.48
2019-02-26T07:41:34.973Z,61.27
2019-02-26T07:44:04.304Z,61.21
2019-02-26T07:46:35.662Z,61.23
2019-02-26T07:49:07.318Z,61.83
2019-02-26T07:51:38.174Z,61.83
2019-02-26T07:54:07.706Z,61.97
2019-02-26T07:56:37.062Z,61.40
2019-02-26T07:59:12.454Z,61.12
2019-02-26T08:01:44.366Z,60.78
2019-02-26T08:04:13.556Z,60.37
2019-02-26T08:06:44.028Z,59.62
2019-02-26T08:09:14.723Z,57.51
2019-02-26T08:11:48.509Z,56.72
2019-02-26T08:14:16.596Z,57.00
2019-02-26T08:16:49.210Z,56.26
2019-02-26T08:19:18.417Z,56.03
2019-02-26T08:21:49.815Z,55.28
2019-02-26T08:24:20.344Z,54.39
2019-02-26T08:26:50.377Z,53.49
2019-02-26T08:29:19.953Z,52.70
2019-02-26T08:31:51.951Z,52.73
2019-02-26T08:34:20.892Z,52.64
2019-02-26T08:36:50.486Z,52.29
2019-02-26T08:39:20.071Z,50.91
2019-02-26T08:42:08.251Z,49.80
2019-02-26T08:44:37.604Z,49.24
2019-02-26T08:47:11.185Z,49.28
2019-02-26T08:49:40.120Z,48.88
2019-02-26T08:52:09.308Z,48.45
2019-02-26T08:54:38.972Z,48.53
2019-02-26T08:57:08.638Z,48.86
2019-02-26T08:59:38.037Z,48.07
2019-02-26T09:02:07.354Z,47.10
2019-02-26T09:04:38.352Z,47.35
2019-02-26T09:07:08.043Z,46.97
2019-02-26T09:09:37.452Z,46.73
2019-02-26T09:12:07.033Z,46.84
2019-02-26T09:14:37.629Z,46.42
2019-02-26T09:17:07.478Z,46.40
2019-02-26T09:19:38.058Z,46.17
2019-02-26T09:22:09.710Z,44.53
2019-02-26T09:24:39.075Z,44.65
2019-02-26T09:27:08.407Z,45.43
2019-02-26T09:29:39.694Z,45.20
2019-02-26T09:32:09.911Z,44.54
2019-02-26T09:34:40.068Z,45.47
2019-02-26T09:37:09.462Z,43.49
2019-02-26T09:39:39.213Z,43.48
2019-02-26T09:42:09.168Z,43.25
2019-02-26T09:44:38.682Z,43.15
2019-02-26T09:47:08.408Z,42.58
2019-02-26T09:49:37.732Z,42.81
2019-02-26T09:52:07.112Z,42.03
2019-02-26T09:54:40.397Z,42.65
2019-02-26T09:57:07.559Z,42.63
2019-02-26T09:59:38.521Z,41.67
2019-02-26T10:02:08.206Z,41.14
2019-02-26T10:04:37.909Z,38.67
2019-02-26T10:07:09.435Z,39.45
2019-02-26T10:09:40.699Z,37.00
2019-02-26T10:12:12.302Z,36.19
2019-02-26T10:14:41.308Z,36.08
2019-02-26T10:17:12.246Z,34.70
2019-02-26T10:19:43.023Z,33.59
2019-02-26T10:22:13.657Z,33.39
2019-02-26T10:24:43.204Z,32.71
2019-02-26T10:27:14.472Z,31.45
2019-02-26T10:29:45.167Z,31.20
2019-02-26T10:32:15.038Z,31.28
2019-02-26T10:34:44.390Z,32.73
2019-02-26T10:37:13.729Z,32.44
2019-02-26T10:39:44.484Z,31.97
2019-02-26T10:42:14.322Z,31.06
2019-02-26T10:44:43.914Z,32.61
2019-02-26T10:47:13.232Z,32.00
2019-02-26T10:49:44.400Z,31.56
2019-02-26T10:52:16.761Z,31.03
2019-02-26T10:54:46.598Z,31.13
2019-02-26T10:57:15.999Z,30.17
2019-02-26T10:59:45.593Z,29.58
2019-02-26T11:02:17.280Z,29.36
2019-02-26T11:04:49.261Z,29.38
2019-02-26T11:07:17.616Z,29.27
2019-02-26T11:09:49.992Z,32.15
2019-02-26T11:12:20.117Z,33.00
2019-02-26T11:14:49.460Z,33.68
2019-02-26T11:17:20.863Z,32.83
2019-02-26T11:19:49.976Z,32.11
2019-02-26T11:22:21.309Z,31.57
2019-02-26T11:24:51.265Z,31.10
2019-02-26T11:27:22.026Z,30.62
2019-02-26T11:29:52.041Z,30.80
2019-02-26T11:32:22.700Z,31.56
2019-02-26T11:34:52.800Z,30.68
2019-02-26T11:37:24.927Z,30.94
2019-02-26T11:39:55.842Z,30.93
2019-02-26T11:42:26.946Z,31.31
2019-02-26T11:44:57.380Z,31.67
2019-02-26T11:47:26.741Z,32.13
2019-02-26T11:49:56.341Z,32.29
2019-02-26T11:52:25.709Z,32.62
2019-02-26T11:54:56.304Z,33.51
2019-02-26T11:57:27.373Z,34.24
2019-02-26T11:59:57.537Z,34.26
2019-02-26T12:02:32.032Z,34.27
2019-02-26T12:05:00.086Z,34.85
2019-02-26T12:07:32.401Z,35.44
2019-02-26T12:10:09.356Z,35.52
2019-02-26T12:12:36.158Z,36.08
2019-02-26T12:15:12.456Z,36.87
2019-02-26T12:17:40.737Z,36.68
2019-02-26T12:20:14.763Z,37.25
2019-02-26T12:22:45.150Z,37.45
2019-02-26T12:25:16.948Z,36.59
2019-02-26T12:27:48.173Z,36.95
2019-02-26T12:30:23.306Z,37.34
2019-02-26T12:32:55.109Z,36.90
2019-02-26T12:35:25.023Z,37.86
2019-02-26T12:37:56.557Z,37.75
2019-02-26T12:40:47.200Z,38.23
2019-02-26T12:43:19.203Z,38.10
2019-02-26T12:45:48.568Z,37.66
2019-02-26T12:48:20.200Z,38.22
2019-02-26T12:50:49.062Z,38.72
2019-02-26T12:53:20.672Z,38.48
2019-02-26T12:55:50.487Z,38.87
2019-02-26T12:58:21.387Z,38.95
2019-02-26T13:00:52.522Z,39.11
2019-02-26T13:03:22.696Z,38.02
2019-02-26T13:05:52.206Z,38.48
2019-02-26T13:08:24.222Z,38.06
2019-02-26T13:13:24.606Z,37.53
2019-02-26T13:16:13.662Z,37.05
2019-02-26T13:18:44.701Z,36.99
2019-02-26T13:21:17.237Z,37.13
2019-02-26T13:23:46.767Z,37.21
2019-02-26T13:26:19.705Z,37.47
2019-02-26T13:28:52.931Z,37.56
2019-02-26T13:31:22.348Z,37.30
2019-02-26T13:33:49.965Z,36.99
2019-02-26T13:36:19.664Z,37.29
2019-02-26T13:38:49.451Z,37.54
2019-02-26T13:41:29.273Z,37.36
2019-02-26T13:43:49.904Z,36.89
2019-02-26T13:46:19.242Z,36.56
2019-02-26T13:48:49.002Z,36.31
2019-02-26T13:51:18.491Z,36.01
2019-02-26T13:53:47.847Z,36.56
2019-02-26T13:56:17.526Z,36.46
2019-02-26T13:58:47.149Z,37.01
2019-02-26T14:01:16.718Z,36.40
2019-02-26T14:03:46.167Z,36.42
2019-02-26T14:06:15.934Z,36.42
2019-02-26T14:08:45.240Z,35.97
2019-02-26T14:11:14.841Z,35.88
2019-02-26T14:13:44.611Z,35.75
2019-02-26T14:16:14.002Z,36.10
2019-02-26T14:18:43.410Z,35.96
2019-02-26T14:21:32.391Z,35.46
2019-02-26T14:24:02.067Z,35.47
2019-02-26T14:26:31.420Z,35.07
2019-02-26T14:29:00.766Z,35.42
2019-02-26T14:31:30.175Z,35.60
2019-02-26T14:33:59.904Z,35.81
2019-02-26T14:36:29.431Z,35.93
2019-02-26T14:38:59.153Z,35.62
2019-02-26T14:41:29.140Z,35.76
2019-02-26T14:43:58.791Z,35.48
2019-02-26T14:46:28.563Z,35.66
2019-02-26T14:48:58.266Z,35.67
2019-02-26T14:51:27.940Z,35.54
2019-02-26T14:53:57.575Z,36.00
2019-02-26T14:56:26.914Z,36.09
2019-02-26T14:58:56.234Z,36.68
2019-02-26T15:01:25.950Z,36.53
2019-02-26T15:03:55.559Z,36.43
2019-02-26T15:06:25.154Z,37.39
2019-02-26T15:08:54.735Z,36.83
2019-02-26T15:11:24.093Z,36.79
2019-02-26T15:13:53.434Z,37.09
2019-02-26T15:16:22.756Z,37.07
2019-02-26T15:18:52.303Z,37.17
2019-02-26T15:21:21.915Z,37.62
2019-02-26T15:23:51.640Z,37.23
2019-02-26T15:26:21.251Z,37.17
2019-02-26T15:28:50.605Z,37.25
2019-02-26T15:31:19.999Z,37.69
2019-02-26T15:33:49.662Z,38.10
2019-02-26T15:36:19.283Z,38.34
2019-02-26T15:38:49.206Z,38.26
2019-02-26T15:41:18.577Z,38.75
2019-02-26T15:43:48.365Z,38.98
2019-02-26T15:46:17.722Z,39.25
2019-02-26T15:48:47.043Z,40.08
2019-02-26T15:51:19.890Z,39.80
2019-02-26T15:53:47.746Z,39.79
2019-02-26T15:56:17.376Z,39.99
2019-02-26T15:58:46.766Z,40.41
2019-02-26T16:01:16.346Z,40.49
2019-02-26T16:03:45.687Z,40.78
2019-02-26T16:06:15.026Z,41.14
2019-02-26T16:08:44.350Z,41.50
2019-02-26T16:11:14.052Z,41.22
2019-02-26T16:13:43.889Z,41.30
2019-02-26T16:16:13.598Z,41.31
2019-02-26T16:18:42.909Z,41.06
2019-02-26T16:21:12.502Z,41.74
2019-02-26T16:23:42.131Z,41.86
2019-02-26T16:26:11.710Z,41.41
2019-02-26T16:28:41.324Z,41.66
2019-02-26T16:31:10.965Z,41.52
2019-02-26T16:33:40.327Z,41.63
2019-02-26T16:36:09.651Z,41.83
2019-02-26T16:38:39.299Z,42.13
2019-02-26T16:41:08.908Z,42.19
2019-02-26T16:43:38.506Z,42.42
2019-02-26T16:46:08.605Z,42.77
2019-02-26T16:48:38.716Z,42.71
2019-02-26T16:51:08.062Z,42.65
2019-02-26T16:53:37.412Z,42.59
2019-02-26T16:56:07.865Z,43.01
2019-02-26T16:58:37.592Z,42.48
2019-02-26T17:01:07.755Z,42.77
2019-02-26T17:03:37.180Z,42.85
2019-02-26T17:06:07.471Z,42.32
2019-02-26T17:08:38.437Z,42.44
2019-02-26T17:11:07.982Z,42.77
2019-02-26T17:13:37.748Z,42.92
2019-02-26T17:16:09.118Z,42.88
2019-02-26T17:18:40.563Z,42.84
2019-02-26T17:21:09.482Z,43.00
2019-02-26T17:23:39.185Z,43.94
2019-02-26T17:26:08.605Z,46.01
2019-02-26T17:28:38.214Z,43.75
2019-02-26T17:31:07.874Z,43.37
2019-02-26T17:33:37.547Z,43.35
2019-02-26T17:36:07.139Z,43.28
2019-02-26T17:38:36.512Z,43.32
2019-02-26T17:41:05.866Z,43.44
2019-02-26T17:43:35.199Z,43.41
2019-02-26T17:46:04.885Z,43.47
2019-02-26T17:48:43.213Z,43.85
2019-02-26T17:51:05.548Z,43.81
2019-02-26T17:53:35.234Z,43.88
2019-02-26T17:56:04.885Z,43.95
2019-02-26T17:58:34.527Z,44.09
2019-02-26T18:01:03.878Z,44.15
2019-02-26T18:03:33.531Z,44.29
2019-02-26T18:06:03.131Z,44.39
2019-02-26T18:08:32.704Z,44.59
2019-02-26T18:11:02.345Z,45.12
2019-02-26T18:13:31.677Z,44.53
2019-02-26T18:16:08.977Z,44.93
2019-02-26T18:18:34.404Z,45.40
2019-02-26T18:21:05.789Z,45.50
2019-02-26T18:23:37.487Z,45.55
2019-02-26T18:26:05.703Z,45.84
2019-02-26T18:28:36.710Z,45.96
2019-02-26T18:31:06.597Z,45.98
2019-02-26T18:33:36.329Z,47.05
2019-02-26T18:36:05.747Z,47.05
2019-02-26T18:38:35.076Z,47.33
2019-02-26T18:41:04.431Z,47.27
2019-02-26T18:43:34.058Z,47.21
2019-02-26T18:46:03.404Z,47.33
2019-02-26T18:48:33.019Z,47.54
2019-02-26T18:51:03.061Z,47.80
2019-02-26T18:53:32.466Z,48.07
2019-02-26T18:56:04.303Z,48.17
2019-02-26T18:58:33.157Z,48.31
2019-02-26T19:01:02.808Z,48.42
2019-02-26T19:03:32.172Z,48.48
2019-02-26T19:06:03.565Z,48.92
2019-02-26T19:08:34.634Z,49.81
2019-02-26T19:11:04.152Z,50.15
2019-02-26T19:13:35.668Z,50.25
2019-02-26T19:16:05.139Z,50.58
2019-02-26T19:18:35.792Z,50.94
2019-02-26T19:21:05.582Z,51.05
2019-02-26T19:23:35.205Z,51.17
2019-02-26T19:26:04.551Z,52.00
2019-02-26T19:28:34.004Z,52.45
2019-02-26T19:31:03.358Z,52.72
2019-02-26T19:33:33.015Z,53.55
2019-02-26T19:36:02.754Z,53.49
2019-02-26T19:38:32.445Z,53.37
2019-02-26T19:41:12.415Z,53.47
2019-02-26T19:43:41.161Z,53.48
2019-02-26T19:46:10.499Z,54.14
2019-02-26T19:48:40.175Z,54.53
2019-02-26T19:51:09.487Z,54.83
2019-02-26T19:53:39.192Z,54.99
2019-02-26T19:56:08.755Z,54.94
2019-02-26T19:58:40.608Z,54.86
2019-02-26T20:01:09.812Z,55.09
2019-02-26T20:03:40.340Z,55.08
2019-02-26T20:06:10.302Z,54.97
2019-02-26T20:08:39.659Z,55.60
2019-02-26T20:11:09.510Z,55.59
2019-02-26T20:13:42.205Z,55.79
2019-02-26T20:16:10.366Z,56.21
2019-02-26T20:18:39.887Z,57.01
2019-02-26T20:21:09.560Z,57.11
2019-02-26T20:23:41.859Z,57.52
2019-02-26T20:26:10.602Z,58.27
2019-02-26T20:28:39.945Z,58.81
2019-02-26T20:31:09.629Z,58.90
2019-02-26T20:33:39.021Z,58.83
2019-02-26T20:36:08.861Z,59.07
2019-02-26T20:38:38.557Z,59.17
2019-02-26T20:41:08.275Z,59.32
2019-02-26T20:43:37.637Z,59.25
2019-02-26T20:46:07.273Z,59.16
2019-02-26T20:48:37.303Z,59.43
2019-02-26T20:51:07.211Z,59.39
2019-02-26T20:53:38.989Z,60.12
2019-02-26T20:56:08.260Z,60.33
2019-02-26T20:58:37.979Z,60.46
2019-02-26T21:01:07.689Z,60.49
2019-02-26T21:03:37.371Z,60.82
2019-02-26T21:06:07.100Z,60.57
2019-02-26T21:08:36.486Z,60.85
2019-02-26T21:11:08.707Z,60.92
2019-02-26T21:13:38.365Z,61.09
2019-02-26T21:16:08.088Z,61.34
2019-02-26T21:18:39.344Z,61.51
2019-02-26T21:21:11.768Z,61.39
2019-02-26T21:23:40.696Z,61.40
2019-02-26T21:26:10.388Z,61.45
2019-02-26T21:28:39.736Z,61.43
2019-02-26T21:31:09.410Z,61.34
2019-02-26T21:33:39.112Z,61.89
2019-02-26T21:36:08.841Z,62.05
2019-02-26T21:38:39.210Z,62.25
2019-02-26T21:41:08.958Z,62.46
2019-02-26T21:43:38.657Z,62.60
2019-02-26T21:46:08.305Z,62.86
2019-02-26T21:48:37.688Z,63.29
2019-02-26T21:51:07.396Z,63.49
2019-02-26T21:53:36.767Z,63.81
2019-02-26T21:56:06.114Z,64.31
2019-02-26T21:58:35.917Z,64.92
2019-02-26T22:01:05.774Z,65.07
2019-02-26T22:03:35.456Z,65.08
2019-02-26T22:06:05.702Z,64.97
2019-02-26T22:08:35.432Z,65.65
2019-02-26T22:11:04.780Z,65.79
2019-02-26T22:13:34.441Z,65.83
2019-02-26T22:16:03.785Z,65.47
2019-02-26T22:18:34.380Z,65.85
2019-02-26T22:21:03.793Z,65.77
2019-02-26T22:23:34.279Z,66.25
2019-02-26T22:26:04.640Z,66.01
2019-02-26T22:28:34.284Z,66.25
2019-02-26T22:31:03.967Z,66.22
2019-02-26T22:33:33.296Z,66.26
2019-02-26T22:36:03.098Z,66.45
2019-02-26T22:38:33.824Z,66.91
2019-02-26T22:41:03.204Z,67.42
2019-02-26T22:43:32.525Z,67.67
2019-02-26T22:46:01.884Z,67.94
2019-02-26T22:48:31.238Z,68.20
2019-02-26T22:51:00.849Z,68.41
2019-02-26T22:53:30.858Z,68.44
2019-02-26T22:56:01.162Z,68.45
2019-02-26T22:58:35.621Z,69.09
2019-02-26T23:01:17.960Z,69.12
2019-02-26T23:03:47.323Z,69.17
2019-02-26T23:06:16.650Z,68.71
2019-02-26T23:08:46.161Z,68.55
2019-02-26T23:11:16.380Z,68.39
2019-02-26T23:13:45.989Z,68.57
2019-02-26T23:16:17.983Z,68.65
2019-02-26T23:18:46.397Z,68.63
2019-02-26T23:21:16.586Z,69.31
2019-02-26T23:23:45.917Z,69.57
2019-02-26T23:26:15.281Z,69.41
2019-02-26T23:28:44.997Z,69.94
2019-02-26T23:31:14.391Z,69.87
2019-02-26T23:33:48.157Z,70.16
2019-02-26T23:36:14.783Z,70.71
2019-02-26T23:38:44.708Z,70.45
2019-02-26T23:41:14.438Z,70.71
2019-02-26T23:43:45.439Z,70.72
2019-02-26T23:46:15.178Z,69.97
2019-02-26T23:48:45.267Z,70.23
2019-02-26T23:51:14.884Z,70.40
2019-02-26T23:53:44.231Z,70.53
2019-02-26T23:56:13.908Z,70.77
2019-02-26T23:58:43.634Z,70.75
